Time;durP1;ratioP1;P1;durP2;ratioP2;P2;SDS_P1;SDS_P2;PMS_P1;PMS_P2;Temp;Humidity;BMP_temperature;BMP_pressure;BME280_temperature;BME280_humidity;BME280_pressure;Samples;Min_cycle;Max_cycle;Signal;HPM_P1;HPM_P2
2022/06/26 00:01:18;;;;;;;14.43;9.27;;;19.80;99.90;;;;;;5111241;28;20043;-49
2022/06/26 00:03:44;;;;;;;13.38;9.65;;;19.80;99.90;;;;;;5111189;28;20455;-50
2022/06/26 00:06:10;;;;;;;14.45;8.88;;;19.90;99.90;;;;;;5092919;28;20058;-50
2022/06/26 00:08:36;;;;;;;12.93;9.63;;;19.80;99.90;;;;;;5130381;27;20054;-49
2022/06/26 00:11:02;;;;;;;13.38;10.18;;;19.70;99.90;;;;;;5131583;27;20517;-51
2022/06/26 00:13:27;;;;;;;14.23;10.60;;;19.60;99.90;;;;;;5131659;27;20043;-50
2022/06/26 00:15:53;;;;;;;17.45;12.25;;;19.30;99.90;;;;;;5114051;27;20044;-48
2022/06/26 00:18:19;;;;;;;17.63;12.32;;;19.20;99.90;;;;;;5109930;28;20123;-51
2022/06/26 00:20:45;;;;;;;17.52;11.43;;;19.10;99.90;;;;;;5111427;28;20028;-49
2022/06/26 00:23:10;;;;;;;16.52;11.40;;;19.20;99.90;;;;;;5111081;28;20122;-50
2022/06/26 00:25:36;;;;;;;20.40;11.85;;;19.10;99.90;;;;;;5110837;28;20057;-49
2022/06/26 00:28:02;;;;;;;20.42;11.18;;;19.10;99.90;;;;;;5110685;27;20051;-50
2022/06/26 00:30:28;;;;;;;19.20;11.45;;;19.20;99.90;;;;;;5111281;28;20478;-51
2022/06/26 00:32:54;;;;;;;23.10;11.77;;;19.20;99.90;;;;;;5110118;28;20078;-47
2022/06/26 00:35:20;;;;;;;16.38;10.65;;;19.20;99.90;;;;;;5110915;28;20055;-51
2022/06/26 00:37:46;;;;;;;20.70;11.82;;;19.30;99.90;;;;;;5110893;28;20038;-51
2022/06/26 00:40:12;;;;;;;19.10;11.57;;;19.30;99.90;;;;;;5111063;28;20040;-51
2022/06/26 00:42:38;;;;;;;19.30;10.85;;;19.30;99.90;;;;;;5110729;28;20036;-48
2022/06/26 00:45:04;;;;;;;16.50;10.07;;;19.30;99.90;;;;;;5092452;28;20039;-50
2022/06/26 00:47:31;;;;;;;12.63;8.38;;;19.40;99.90;;;;;;5110346;28;20513;-51
2022/06/26 00:49:57;;;;;;;10.13;6.38;;;19.40;99.90;;;;;;5108142;28;20043;-51
2022/06/26 00:52:23;;;;;;;9.32;4.90;;;19.30;99.90;;;;;;5110918;28;20466;-52
2022/06/26 00:54:54;;;;;;;14.57;5.78;;;19.30;99.90;;;;;;5110728;28;20097;-51
2022/06/26 00:57:20;;;;;;;10.07;5.80;;;19.20;99.90;;;;;;5110482;28;20063;-51
2022/06/26 00:59:47;;;;;;;15.10;6.80;;;19.20;99.90;;;;;;5109465;28;20048;-49
2022/06/26 01:02:13;;;;;;;13.90;7.18;;;19.10;99.90;;;;;;5110351;28;20035;-47
2022/06/26 01:04:39;;;;;;;11.75;7.22;;;19.00;99.90;;;;;;5110738;28;20505;-52
2022/06/26 01:07:05;;;;;;;12.45;7.05;;;19.00;99.90;;;;;;5109898;28;20039;-49
2022/06/26 01:09:33;;;;;;;12.68;7.47;;;19.00;99.90;;;;;;5110454;28;20048;-50
2022/06/26 01:11:58;;;;;;;13.93;7.13;;;19.00;99.90;;;;;;5110576;28;20477;-53
2022/06/26 01:14:25;;;;;;;14.85;6.75;;;18.90;99.90;;;;;;5110493;28;20118;-49
2022/06/26 01:16:51;;;;;;;13.77;7.40;;;19.00;99.90;;;;;;5110370;28;20027;-51
2022/06/26 01:19:19;;;;;;;14.30;8.02;;;18.90;99.90;;;;;;5110228;28;20573;-50
2022/06/26 01:21:45;;;;;;;14.75;7.53;;;18.90;99.90;;;;;;5109984;28;20036;-50
2022/06/26 01:24:12;;;;;;;14.65;7.80;;;18.80;99.90;;;;;;5110420;28;20479;-48
2022/06/26 01:26:37;;;;;;;13.15;8.52;;;18.90;99.90;;;;;;5091785;28;20127;-52
2022/06/26 01:29:04;;;;;;;13.32;8.30;;;18.90;99.90;;;;;;5110199;28;20720;-48
2022/06/26 01:31:33;;;;;;;13.27;8.00;;;18.90;99.90;;;;;;5110321;28;20084;-51
2022/06/26 01:34:04;;;;;;;12.60;7.38;;;18.90;99.90;;;;;;5109927;28;20036;-53
2022/06/26 01:36:30;;;;;;;14.90;7.53;;;18.80;99.90;;;;;;5091771;28;20372;-48
2022/06/26 01:38:56;;;;;;;14.50;7.35;;;18.80;99.90;;;;;;5110074;28;20032;-53
2022/06/26 01:41:22;;;;;;;14.15;7.22;;;18.70;99.90;;;;;;5110377;28;20118;-49
2022/06/26 01:43:47;;;;;;;13.32;7.32;;;18.80;99.90;;;;;;5110315;28;20070;-49
2022/06/26 01:46:13;;;;;;;13.75;7.00;;;18.80;99.90;;;;;;5110144;28;20173;-50
2022/06/26 01:48:42;;;;;;;13.85;7.43;;;18.70;99.90;;;;;;5109980;28;20089;-47
2022/06/26 01:51:08;;;;;;;12.90;7.15;;;18.70;99.90;;;;;;5109886;28;20096;-52
2022/06/26 01:53:34;;;;;;;11.38;6.70;;;18.60;99.90;;;;;;5110163;28;20066;-52
2022/06/26 01:56:01;;;;;;;11.88;5.70;;;18.70;99.90;;;;;;5110126;28;20032;-48
2022/06/26 01:58:27;;;;;;;9.30;5.60;;;18.60;99.90;;;;;;5091972;28;20032;-49
2022/06/26 02:00:55;;;;;;;7.95;3.60;;;18.70;99.90;;;;;;5109623;28;20066;-50
2022/06/26 02:03:23;;;;;;;7.35;3.47;;;18.60;99.90;;;;;;5109389;28;20047;-48
2022/06/26 02:05:50;;;;;;;6.22;3.65;;;18.60;99.90;;;;;;5110132;28;20499;-49
2022/06/26 02:08:16;;;;;;;6.90;3.53;;;18.50;99.90;;;;;;5110041;28;20440;-50
2022/06/26 02:13:42;;;;;;;;;;;18.40;99.90;;;;;;5113139;28;20074;-49
2022/06/26 02:16:17;;;;;;;4.63;2.20;;;18.20;99.90;;;;;;5113493;28;20003;-51
2022/06/26 02:18:46;;;;;;;3.67;2.05;;;18.20;99.90;;;;;;5113417;28;20036;-50
2022/06/26 02:21:15;;;;;;;4.68;2.67;;;18.30;99.90;;;;;;5113345;28;20035;-48
2022/06/26 02:23:42;;;;;;;4.57;2.63;;;18.20;99.90;;;;;;5113260;28;20539;-48
2022/06/26 02:26:08;;;;;;;5.47;2.80;;;18.20;99.90;;;;;;5113549;28;20073;-49
2022/06/26 02:28:35;;;;;;;4.72;2.70;;;18.10;99.90;;;;;;5113022;27;20039;-48
2022/06/26 02:31:01;;;;;;;7.15;3.22;;;18.10;99.90;;;;;;5113430;28;20039;-48
2022/06/26 02:33:28;;;;;;;5.68;2.90;;;18.10;99.90;;;;;;5112835;28;20040;-49
2022/06/26 02:35:55;;;;;;;5.50;3.20;;;18.00;99.90;;;;;;5113028;28;20270;-51
2022/06/26 02:38:22;;;;;;;5.93;3.65;;;18.10;99.90;;;;;;5113230;28;20116;-52
2022/06/26 02:40:48;;;;;;;6.38;3.47;;;18.10;99.90;;;;;;5113239;28;20067;-48
2022/06/26 02:43:14;;;;;;;5.72;3.25;;;18.10;99.90;;;;;;5111630;28;20032;-48
2022/06/26 02:45:41;;;;;;;5.75;3.42;;;18.00;99.90;;;;;;5113306;27;20040;-49
2022/06/26 02:48:07;;;;;;;4.45;3.25;;;18.10;99.90;;;;;;5095002;28;20465;-48
2022/06/26 02:50:32;;;;;;;5.80;3.85;;;18.00;99.90;;;;;;5113103;27;20035;-49
2022/06/26 02:52:58;;;;;;;9.50;3.78;;;17.90;99.90;;;;;;5112786;28;20092;-51
2022/06/26 02:55:24;;;;;;;7.75;4.05;;;17.90;99.90;;;;;;5113143;28;20308;-48
2022/06/26 02:57:49;;;;;;;5.57;3.53;;;17.90;99.90;;;;;;5112792;28;20101;-49
2022/06/26 03:00:15;;;;;;;6.68;3.30;;;17.80;99.90;;;;;;5112701;28;20130;-49
2022/06/26 03:02:41;;;;;;;5.22;3.38;;;17.90;99.90;;;;;;5112910;28;20112;-50
2022/06/26 03:05:08;;;;;;;5.13;3.53;;;17.70;99.90;;;;;;5113452;27;20455;-50
2022/06/26 03:07:33;;;;;;;7.97;3.65;;;17.80;99.90;;;;;;5113291;28;20043;-50
2022/06/26 03:09:59;;;;;;;6.72;3.78;;;17.70;99.90;;;;;;5113162;28;20100;-50
2022/06/26 03:12:25;;;;;;;4.70;3.42;;;17.60;99.90;;;;;;5113104;28;20036;-50
2022/06/26 03:14:50;;;;;;;5.55;3.40;;;17.60;99.90;;;;;;5113439;28;20043;-51
2022/06/26 03:17:16;;;;;;;5.63;3.42;;;17.50;99.90;;;;;;5113106;28;20028;-48
2022/06/26 03:19:43;;;;;;;8.95;3.60;;;17.40;99.90;;;;;;5112996;28;20035;-50
2022/06/26 03:22:08;;;;;;;4.75;2.85;;;17.40;99.90;;;;;;5113065;28;20036;-48
2022/06/26 03:24:34;;;;;;;5.72;2.88;;;17.40;99.90;;;;;;5112532;27;20042;-50
2022/06/26 03:27:00;;;;;;;4.22;2.85;;;17.30;99.90;;;;;;5116129;27;20031;-53
2022/06/26 03:29:26;;;;;;;5.57;3.00;;;17.30;99.90;;;;;;5112706;28;20047;-49
2022/06/26 03:31:52;;;;;;;5.18;3.10;;;17.40;99.90;;;;;;5112502;28;20039;-49
2022/06/26 03:34:19;;;;;;;4.20;2.72;;;17.30;99.90;;;;;;5112894;28;20208;-52
2022/06/26 03:36:45;;;;;;;3.72;2.50;;;17.40;99.90;;;;;;5111279;28;20107;-49
2022/06/26 03:39:10;;;;;;;4.70;3.00;;;17.40;99.90;;;;;;5112846;28;20157;-50
2022/06/26 03:41:36;;;;;;;4.38;3.13;;;17.50;99.90;;;;;;5112416;28;20031;-49
2022/06/26 03:44:02;;;;;;;6.30;3.20;;;17.50;99.90;;;;;;5112442;28;20058;-48
2022/06/26 03:46:28;;;;;;;5.93;3.05;;;17.40;99.90;;;;;;5112234;28;20042;-47
2022/06/26 03:48:53;;;;;;;4.65;3.22;;;17.40;99.90;;;;;;5112209;28;20074;-49
2022/06/26 03:51:19;;;;;;;6.53;3.28;;;17.30;99.90;;;;;;5093715;28;20058;-50
2022/06/26 03:53:45;;;;;;;4.72;3.00;;;17.40;99.90;;;;;;5112166;27;20047;-48
2022/06/26 03:56:10;;;;;;;5.20;3.22;;;17.40;99.90;;;;;;5111974;28;20039;-48
2022/06/26 03:58:36;;;;;;;6.53;3.50;;;17.30;99.90;;;;;;5112029;27;20031;-48
2022/06/26 04:01:02;;;;;;;6.63;4.18;;;17.40;99.90;;;;;;5111921;28;20132;-52
2022/06/26 04:03:27;;;;;;;6.47;4.85;;;17.30;99.90;;;;;;5111928;28;20051;-51
2022/06/26 04:05:53;;;;;;;9.55;5.50;;;17.30;99.90;;;;;;5110507;28;20356;-50
2022/06/26 04:08:19;;;;;;;7.50;5.97;;;17.30;99.90;;;;;;5111275;27;20044;-54
2022/06/26 04:10:45;;;;;;;9.75;6.72;;;17.40;99.90;;;;;;5112222;28;21700;-49
2022/06/26 04:13:12;;;;;;;10.45;7.35;;;17.40;99.90;;;;;;5111674;28;20564;-50
2022/06/26 04:15:39;;;;;;;8.10;6.53;;;17.50;99.90;;;;;;5112108;28;20482;-53
2022/06/26 04:18:06;;;;;;;10.38;7.78;;;17.60;99.90;;;;;;5111915;28;20044;-53
2022/06/26 04:20:32;;;;;;;10.95;7.78;;;17.60;99.90;;;;;;5112030;28;20047;-50
2022/06/26 04:22:59;;;;;;;10.65;8.38;;;17.60;99.90;;;;;;5111470;28;20035;-50
2022/06/26 04:25:27;;;;;;;11.30;8.73;;;17.60;99.90;;;;;;5111602;28;20047;-52
2022/06/26 04:27:52;;;;;;;9.98;8.15;;;17.60;99.90;;;;;;5093653;28;20047;-51
2022/06/26 04:30:18;;;;;;;10.50;8.98;;;17.60;99.90;;;;;;5111493;28;20046;-49
2022/06/26 04:32:44;;;;;;;12.52;8.40;;;17.70;99.90;;;;;;5110716;27;20095;-51
2022/06/26 04:35:10;;;;;;;12.32;8.45;;;17.60;99.90;;;;;;5111158;27;20114;-50
2022/06/26 04:37:37;;;;;;;10.13;8.60;;;17.70;99.90;;;;;;5111639;28;20028;-46
2022/06/26 04:40:05;;;;;;;13.02;9.15;;;17.80;99.90;;;;;;5111428;28;20054;-50
2022/06/26 04:42:31;;;;;;;14.85;10.82;;;17.80;99.90;;;;;;5111252;28;20047;-48
2022/06/26 04:44:57;;;;;;;13.85;11.25;;;17.70;99.90;;;;;;5111572;28;20044;-51
2022/06/26 04:47:23;;;;;;;17.60;11.85;;;17.80;99.90;;;;;;5111397;28;20047;-48
2022/06/26 04:49:48;;;;;;;16.55;12.77;;;17.70;99.90;;;;;;5111397;28;20101;-51
2022/06/26 04:52:15;;;;;;;14.65;12.35;;;17.80;99.90;;;;;;5111387;28;20466;-50
2022/06/26 04:54:42;;;;;;;15.68;11.85;;;17.80;99.90;;;;;;5111323;28;20479;-51
2022/06/26 04:57:08;;;;;;;14.32;10.82;;;17.80;99.90;;;;;;5111320;28;20028;-51
2022/06/26 04:59:33;;;;;;;13.57;10.30;;;17.90;99.90;;;;;;5111455;28;20032;-51
2022/06/26 05:01:59;;;;;;;15.70;11.43;;;17.80;99.90;;;;;;5110423;28;20043;-48
2022/06/26 05:04:25;;;;;;;16.67;11.93;;;17.70;99.90;;;;;;5111125;28;20446;-47
2022/06/26 05:06:50;;;;;;;15.48;11.57;;;17.80;99.90;;;;;;5111180;28;20083;-50
2022/06/26 05:09:16;;;;;;;17.17;13.60;;;17.80;99.90;;;;;;5111139;28;20051;-51
2022/06/26 05:11:43;;;;;;;18.48;13.80;;;17.60;99.90;;;;;;5092781;28;20032;-48
2022/06/26 05:14:09;;;;;;;15.23;13.50;;;17.60;99.90;;;;;;5110874;28;20129;-52
2022/06/26 05:16:35;;;;;;;19.27;13.10;;;17.50;99.90;;;;;;5109971;28;20352;-51
2022/06/26 05:19:01;;;;;;;19.40;14.45;;;17.60;99.90;;;;;;5111222;28;20057;-51
2022/06/26 05:21:27;;;;;;;17.52;14.20;;;17.60;99.90;;;;;;5111061;28;20097;-49
2022/06/26 05:23:53;;;;;;;19.25;14.23;;;17.50;99.90;;;;;;5111137;28;20461;-48
2022/06/26 05:26:18;;;;;;;18.95;14.30;;;17.60;99.90;;;;;;5111107;28;20035;-48
2022/06/26 05:28:44;;;;;;;18.63;15.55;;;17.60;99.90;;;;;;5110976;28;20047;-48
2022/06/26 05:31:10;;;;;;;17.50;15.50;;;17.70;99.90;;;;;;5110934;28;20114;-50
2022/06/26 05:33:36;;;;;;;17.83;15.55;;;17.70;99.90;;;;;;5110453;28;20032;-50
2022/06/26 05:36:01;;;;;;;19.65;16.15;;;17.70;99.90;;;;;;5110854;28;20079;-49
2022/06/26 05:38:27;;;;;;;18.58;15.30;;;17.80;99.90;;;;;;5092568;28;20048;-50
2022/06/26 05:40:53;;;;;;;20.02;15.93;;;17.80;99.90;;;;;;5091180;28;20104;-52
2022/06/26 05:43:19;;;;;;;19.13;15.15;;;17.80;99.90;;;;;;5092878;28;20125;-53
2022/06/26 05:45:44;;;;;;;19.30;15.40;;;17.90;99.90;;;;;;5111018;28;20425;-52
2022/06/26 05:48:10;;;;;;;19.40;16.05;;;17.80;99.90;;;;;;5113148;28;20082;-51
2022/06/26 05:50:36;;;;;;;18.65;13.75;;;17.80;99.90;;;;;;5114778;28;20494;-51
2022/06/26 05:53:01;;;;;;;19.45;15.23;;;17.70;99.90;;;;;;5096213;28;20130;-47
2022/06/26 05:55:27;;;;;;;20.90;15.38;;;17.60;99.90;;;;;;5114660;28;20378;-47
2022/06/26 05:57:53;;;;;;;19.38;15.20;;;17.60;99.90;;;;;;5112985;28;20043;-51
2022/06/26 06:00:19;;;;;;;20.35;14.15;;;17.50;99.90;;;;;;5114299;28;20051;-49
2022/06/26 06:02:47;;;;;;;19.45;14.35;;;17.30;99.90;;;;;;5114216;28;20035;-51
2022/06/26 06:05:13;;;;;;;20.10;14.98;;;17.30;99.90;;;;;;5114407;28;20035;-50
2022/06/26 06:07:38;;;;;;;19.88;14.75;;;17.30;99.90;;;;;;5114456;28;20407;-50
2022/06/26 06:10:06;;;;;;;20.27;15.18;;;17.30;99.90;;;;;;5114468;28;20048;-50
2022/06/26 06:12:33;;;;;;;19.58;14.55;;;17.30;99.90;;;;;;5113933;28;20044;-48
2022/06/26 06:15:02;;;;;;;20.60;17.63;;;17.30;99.90;;;;;;5114494;28;20039;-50
2022/06/26 06:17:37;;;;;;;21.85;16.70;;;17.30;99.90;;;;;;5095555;28;20043;-49
2022/06/26 06:20:18;;;;;;;21.83;16.88;;;17.30;99.90;;;;;;5095715;28;20039;-50
2022/06/26 06:22:51;;;;;;;27.38;17.50;;;17.30;99.90;;;;;;5114090;28;20074;-51
2022/06/26 06:25:16;;;;;;;21.37;15.50;;;17.30;99.90;;;;;;5114221;28;20032;-51
2022/06/26 06:27:43;;;;;;;26.23;16.88;;;17.30;99.90;;;;;;5113669;28;20122;-48
2022/06/26 06:30:10;;;;;;;31.02;16.73;;;17.40;99.90;;;;;;5114097;28;20031;-50
2022/06/26 06:32:36;;;;;;;24.13;16.02;;;17.40;99.90;;;;;;5113259;28;20027;-52
2022/06/26 06:35:02;;;;;;;22.95;15.88;;;17.30;99.90;;;;;;5114028;28;20467;-47
2022/06/26 06:37:27;;;;;;;23.45;16.50;;;17.40;99.90;;;;;;5113669;28;20114;-49
2022/06/26 06:39:53;;;;;;;25.23;16.42;;;17.50;99.90;;;;;;5113980;28;20043;-49
2022/06/26 06:42:19;;;;;;;25.30;16.58;;;17.40;99.90;;;;;;5113528;28;20035;-48
2022/06/26 06:44:45;;;;;;;23.88;16.20;;;17.30;99.90;;;;;;5095149;28;20044;-50
2022/06/26 06:47:13;;;;;;;23.65;15.85;;;17.40;99.90;;;;;;5113457;28;20066;-50
2022/06/26 06:49:39;;;;;;;27.77;16.85;;;17.50;99.90;;;;;;5113684;28;20385;-51
2022/06/26 06:52:06;;;;;;;24.83;17.17;;;17.70;99.90;;;;;;5113430;27;20044;-51
2022/06/26 06:54:32;;;;;;;25.65;16.58;;;17.90;99.90;;;;;;5111687;28;20054;-50
2022/06/26 06:56:58;;;;;;;26.50;17.20;;;17.90;99.90;;;;;;5111417;28;20496;-50
2022/06/26 06:59:24;;;;;;;23.55;15.85;;;18.10;99.90;;;;;;5100916;28;20123;-51
2022/06/26 07:01:50;;;;;;;20.15;14.75;;;18.20;99.90;;;;;;5100346;27;20056;-50
2022/06/26 07:04:17;;;;;;;21.00;15.70;;;18.30;99.90;;;;;;5101542;28;20039;-50
2022/06/26 07:06:43;;;;;;;21.02;14.75;;;18.30;99.90;;;;;;5102072;28;20051;-51
2022/06/26 07:09:08;;;;;;;21.40;15.48;;;18.30;99.90;;;;;;5102332;27;20428;-48
2022/06/26 07:11:34;;;;;;;20.10;14.98;;;18.30;99.90;;;;;;5101806;28;20070;-48
2022/06/26 07:14:00;;;;;;;20.15;15.50;;;18.30;99.90;;;;;;5101856;27;20454;-51
2022/06/26 07:16:27;;;;;;;26.10;15.38;;;18.30;99.90;;;;;;5096689;28;20035;-50
2022/06/26 07:18:52;;;;;;;21.80;15.65;;;18.50;99.90;;;;;;5092501;28;20074;-53
2022/06/26 07:21:18;;;;;;;21.10;15.50;;;18.50;99.90;;;;;;5093785;27;20173;-51
2022/06/26 07:23:44;;;;;;;17.95;14.68;;;18.70;99.90;;;;;;5080698;28;20039;-51
2022/06/26 07:26:10;;;;;;;22.40;14.95;;;18.60;99.90;;;;;;5083695;28;20063;-51
2022/06/26 07:28:36;;;;;;;20.38;14.00;;;18.70;99.90;;;;;;5101633;28;20032;-50
2022/06/26 07:31:01;;;;;;;18.30;13.77;;;18.90;99.90;;;;;;5101428;28;20074;-51
2022/06/26 07:36:12;;;;;;;17.02;12.57;;;19.00;99.90;;;;;;5101825;28;20043;-49
2022/06/26 07:38:37;;;;;;;16.45;11.25;;;18.90;99.90;;;;;;5101719;27;20044;-49
2022/06/26 07:41:03;;;;;;;17.52;11.68;;;19.00;99.90;;;;;;5100116;27;20102;-50
2022/06/26 07:43:29;;;;;;;13.25;10.45;;;19.20;99.90;;;;;;5080040;28;20092;-53
2022/06/26 07:45:56;;;;;;;14.25;10.45;;;19.10;99.90;;;;;;5099512;28;20141;-50
2022/06/26 07:48:22;;;;;;;13.07;9.38;;;19.00;99.90;;;;;;5100536;28;20181;-50
2022/06/26 07:50:48;;;;;;;14.57;10.52;;;19.20;99.90;;;;;;5098915;28;20521;-49
2022/06/26 07:53:14;;;;;;;13.18;11.02;;;19.00;99.90;;;;;;5100044;28;20071;-48
2022/06/26 07:55:40;;;;;;;11.55;8.25;;;19.00;99.90;;;;;;5100267;28;20058;-50
2022/06/26 07:58:06;;;;;;;12.05;7.43;;;18.80;99.90;;;;;;5100364;28;20042;-48
2022/06/26 08:00:32;;;;;;;9.25;6.45;;;18.80;99.90;;;;;;5099475;28;20047;-50
2022/06/26 08:03:05;;;;;;;10.20;6.57;;;18.80;99.90;;;;;;5098327;28;20055;-50
2022/06/26 08:05:31;;;;;;;9.35;6.95;;;19.00;99.90;;;;;;5098210;28;20063;-51
2022/06/26 08:07:58;;;;;;;9.25;6.38;;;18.90;99.90;;;;;;5100629;27;20055;-49
2022/06/26 08:10:23;;;;;;;9.18;6.90;;;19.00;99.90;;;;;;5079477;28;20097;-51
2022/06/26 08:12:49;;;;;;;10.25;6.30;;;19.10;99.90;;;;;;5098897;28;20038;-51
2022/06/26 08:15:15;;;;;;;10.38;4.80;;;19.10;99.90;;;;;;5099986;28;20028;-50
2022/06/26 08:17:41;;;;;;;9.77;4.40;;;19.00;99.90;;;;;;5099415;28;20387;-49
2022/06/26 08:20:07;;;;;;;8.38;4.00;;;19.10;99.90;;;;;;5099544;28;20471;-50
2022/06/26 08:22:33;;;;;;;6.45;3.30;;;19.10;99.90;;;;;;5099817;28;20546;-51
2022/06/26 08:24:58;;;;;;;8.82;4.22;;;19.20;99.90;;;;;;5098719;28;20126;-49
2022/06/26 08:27:24;;;;;;;7.72;3.65;;;19.20;99.90;;;;;;5098895;28;20124;-51
2022/06/26 08:29:50;;;;;;;8.43;3.38;;;19.10;99.90;;;;;;5099642;28;20044;-50
2022/06/26 08:32:15;;;;;;;6.93;3.28;;;19.00;99.90;;;;;;5080089;28;20031;-49
2022/06/26 08:34:42;;;;;;;15.32;4.13;;;19.10;99.90;;;;;;5099371;28;20043;-52
2022/06/26 08:37:08;;;;;;;8.45;4.13;;;19.20;99.90;;;;;;5099761;28;20034;-53
2022/06/26 08:39:35;;;;;;;8.48;4.10;;;19.40;99.90;;;;;;5099941;28;20115;-50
2022/06/26 08:42:02;;;;;;;7.32;3.80;;;19.50;99.90;;;;;;5098379;28;20039;-51
2022/06/26 08:44:29;;;;;;;7.40;3.95;;;19.70;99.90;;;;;;5098705;28;20047;-50
2022/06/26 08:46:55;;;;;;;6.80;3.50;;;19.80;99.90;;;;;;5098453;27;20122;-48
2022/06/26 08:49:23;;;;;;;6.03;3.13;;;19.90;99.90;;;;;;5099728;27;20153;-51
2022/06/26 08:51:50;;;;;;;6.07;3.28;;;19.90;99.90;;;;;;5081641;28;20479;-48
2022/06/26 08:54:17;;;;;;;5.55;3.38;;;19.80;99.90;;;;;;5098409;28;20050;-50
2022/06/26 08:56:48;;;;;;;6.63;3.17;;;19.90;99.90;;;;;;5097716;28;20181;-48
2022/06/26 08:59:17;;;;;;;7.05;3.55;;;20.30;99.90;;;;;;5096714;28;20481;-51
2022/06/26 09:01:43;;;;;;;8.20;3.00;;;20.40;99.90;;;;;;5095821;28;20415;-50
2022/06/26 09:04:11;;;;;;;7.47;2.70;;;20.50;99.90;;;;;;5096789;28;20035;-51
2022/06/26 09:06:38;;;;;;;6.35;2.55;;;20.40;99.90;;;;;;5097364;28;20044;-52
2022/06/26 09:09:24;;;;;;;7.72;2.80;;;20.30;99.90;;;;;;5097117;28;20702;-47
2022/06/26 09:11:52;;;;;;;6.25;3.00;;;20.50;99.90;;;;;;5095405;28;20044;-47
2022/06/26 09:14:18;;;;;;;7.30;3.30;;;20.60;99.90;;;;;;5099047;28;20055;-51
2022/06/26 09:16:46;;;;;;;7.70;2.67;;;20.60;99.90;;;;;;5104777;28;20044;-49
2022/06/26 09:19:21;;;;;;;5.82;2.65;;;20.80;99.90;;;;;;5103168;28;20058;-51
2022/06/26 09:21:47;;;;;;;7.28;3.05;;;20.90;99.90;;;;;;5105666;28;20408;-53
2022/06/26 09:24:16;;;;;;;7.47;3.70;;;21.20;99.90;;;;;;5106665;28;20047;-49
2022/06/26 09:26:43;;;;;;;9.13;3.20;;;21.20;99.90;;;;;;5108627;28;20035;-50
2022/06/26 09:29:18;;;;;;;5.72;2.60;;;21.00;99.90;;;;;;5107136;28;20040;-52
2022/06/26 09:31:44;;;;;;;10.68;3.15;;;20.90;99.90;;;;;;5109132;28;20036;-52
2022/06/26 09:34:27;;;;;;;8.25;3.20;;;21.00;99.90;;;;;;5106064;27;20047;-50
2022/06/26 09:37:04;;;;;;;7.68;2.95;;;21.00;99.90;;;;;;5108522;28;20119;-50
2022/06/26 09:39:31;;;;;;;6.20;2.95;;;21.20;99.90;;;;;;5101300;28;20046;-49
2022/06/26 09:42:02;;;;;;;5.20;2.60;;;21.30;99.90;;;;;;5103722;27;20043;-47
2022/06/26 09:44:28;;;;;;;4.57;2.50;;;21.50;99.90;;;;;;5081815;28;20074;-48
2022/06/26 09:46:54;;;;;;;4.95;2.30;;;21.80;99.90;;;;;;5102960;27;20066;-51
2022/06/26 09:49:20;;;;;;;7.68;2.28;;;21.80;99.90;;;;;;5100700;28;20065;-48
2022/06/26 09:51:47;;;;;;;6.53;2.38;;;22.00;99.90;;;;;;5104515;28;20048;-46
2022/06/26 09:54:13;;;;;;;6.80;2.47;;;21.70;99.90;;;;;;5099435;28;20040;-51
2022/06/26 09:56:39;;;;;;;6.50;2.42;;;21.60;99.90;;;;;;5104754;28;20028;-47
2022/06/26 09:59:07;;;;;;;6.35;2.65;;;21.80;99.90;;;;;;5097457;28;20038;-48
2022/06/26 10:07:06;;;;;;;4.93;2.15;;;21.60;99.90;;;;;;5100811;28;20055;-49
2022/06/26 10:09:34;;;;;;;7.13;2.10;;;21.50;99.90;;;;;;5104085;28;20075;-50
2022/06/26 10:12:02;;;;;;;8.85;2.72;;;21.50;99.90;;;;;;5099195;28;20032;-49
2022/06/26 10:14:36;;;;;;;7.25;2.50;;;21.40;99.90;;;;;;5102977;27;20418;-47
2022/06/26 10:17:11;;;;;;;6.97;2.50;;;21.30;99.90;;;;;;5098058;28;20028;-51
2022/06/26 10:19:45;;;;;;;8.77;3.15;;;21.50;99.90;;;;;;5105778;28;20861;-49
2022/06/26 10:22:12;;;;;;;10.25;2.88;;;21.40;99.90;;;;;;5097890;28;20047;-48
2022/06/26 10:24:56;;;;;;;5.82;2.30;;;21.50;99.90;;;;;;5103254;28;20513;-51
2022/06/26 10:27:24;;;;;;;5.80;2.65;;;21.50;99.90;;;;;;5098779;28;20043;-49
2022/06/26 10:29:49;;;;;;;5.95;2.90;;;21.70;99.90;;;;;;5107345;28;20058;-50
2022/06/26 10:32:22;;;;;;;6.53;2.97;;;21.70;99.90;;;;;;5105492;28;20036;-51
2022/06/26 10:34:58;;;;;;;8.13;3.10;;;21.90;99.90;;;;;;5103216;28;20036;-50
2022/06/26 10:37:24;;;;;;;6.65;3.10;;;22.00;99.90;;;;;;5106459;28;20059;-51
2022/06/26 10:39:52;;;;;;;9.18;3.28;;;21.90;99.90;;;;;;5103587;27;20101;-48
2022/06/26 10:45:22;;;;;;;7.72;2.60;;;22.20;99.90;;;;;;5104729;28;20817;-49
2022/06/26 10:47:53;;;;;;;8.13;3.00;;;22.20;99.90;;;;;;5107041;28;20036;-46
2022/06/26 10:50:25;;;;;;;6.30;2.67;;;22.30;99.90;;;;;;5107404;28;20107;-50
2022/06/26 10:52:51;;;;;;;5.70;2.85;;;22.40;99.90;;;;;;5102826;28;20122;-51
2022/06/26 10:55:17;;;;;;;5.70;2.22;;;22.50;99.90;;;;;;5108658;28;20543;-54
2022/06/26 10:57:43;;;;;;;6.20;2.50;;;22.50;99.90;;;;;;5112063;27;20035;-49
2022/06/26 11:00:12;;;;;;;13.90;3.15;;;22.40;99.90;;;;;;5109710;28;20055;-51
2022/06/26 11:02:45;;;;;;;5.88;2.30;;;22.40;99.90;;;;;;5106116;28;20047;-50
2022/06/26 11:05:11;;;;;;;9.02;2.75;;;22.60;99.90;;;;;;5101516;28;20036;-53
2022/06/26 11:07:45;;;;;;;5.80;2.67;;;22.50;99.90;;;;;;5105340;27;20084;-50
2022/06/26 11:10:12;;;;;;;7.50;2.38;;;22.40;99.90;;;;;;5090213;28;20485;-49
2022/06/26 11:12:43;;;;;;;6.90;2.40;;;22.70;99.90;;;;;;5104073;28;20070;-51
2022/06/26 11:15:32;;;;;;;6.22;2.10;;;22.50;99.90;;;;;;5100870;28;20135;-49
2022/06/26 11:18:04;;;;;;;5.25;1.65;;;22.40;99.90;;;;;;5094116;28;20040;-49
2022/06/26 11:20:49;;;;;;;6.68;1.90;;;22.30;99.90;;;;;;5099448;27;20528;-51
2022/06/26 11:23:19;;;;;;;6.20;2.15;;;22.50;99.90;;;;;;5098225;28;20024;-51
2022/06/26 11:25:52;;;;;;;5.18;2.13;;;22.50;99.90;;;;;;5092541;28;20037;-52
2022/06/26 11:28:18;;;;;;;5.53;2.40;;;22.50;99.90;;;;;;5104049;28;20046;-53
2022/06/26 11:30:46;;;;;;;9.73;2.75;;;22.60;99.90;;;;;;5103337;27;20040;-50
2022/06/26 11:33:12;;;;;;;6.50;2.58;;;22.50;99.90;;;;;;5102125;28;20596;-50
2022/06/26 11:35:40;;;;;;;6.75;2.53;;;22.50;99.90;;;;;;5105255;28;20035;-48
2022/06/26 11:38:15;;;;;;;5.78;2.42;;;22.70;99.90;;;;;;5102224;28;20429;-50
2022/06/26 11:40:43;;;;;;;6.05;2.25;;;22.60;99.90;;;;;;5104670;27;20027;-50
2022/06/26 11:43:10;;;;;;;7.45;3.22;;;22.60;99.90;;;;;;5103641;28;20035;-51
2022/06/26 11:45:37;;;;;;;7.07;2.30;;;22.80;99.90;;;;;;5099219;28;20120;-53
2022/06/26 11:48:18;;;;;;;6.00;2.67;;;22.80;99.90;;;;;;5106144;28;20051;-54
2022/06/26 11:50:51;;;;;;;6.72;2.60;;;23.00;99.90;;;;;;5085057;28;20032;-47
2022/06/26 11:53:23;;;;;;;4.57;2.03;;;23.00;99.90;;;;;;5100433;27;20040;-54
2022/06/26 11:55:52;;;;;;;6.38;2.60;;;23.30;99.90;;;;;;5105238;28;20379;-52
2022/06/26 11:58:17;;;;;;;6.70;2.80;;;23.50;99.90;;;;;;5100953;28;20648;-51
2022/06/26 12:00:45;;;;;;;5.60;2.50;;;23.40;99.90;;;;;;5105227;28;20084;-54
2022/06/26 12:03:14;;;;;;;6.00;3.03;;;23.40;99.90;;;;;;5103310;28;20043;-53
2022/06/26 12:05:42;;;;;;;5.93;3.10;;;23.10;99.90;;;;;;5101184;27;20092;-53
2022/06/26 12:08:16;;;;;;;7.70;3.10;;;23.10;99.90;;;;;;5105508;28;20067;-52
2022/06/26 12:10:45;;;;;;;6.10;2.58;;;23.00;99.90;;;;;;5102737;27;20073;-52
2022/06/26 12:13:29;;;;;;;6.43;2.95;;;22.80;99.90;;;;;;5099607;28;20455;-48
2022/06/26 12:16:04;;;;;;;7.50;3.20;;;22.70;99.90;;;;;;5104644;28;20099;-51
2022/06/26 12:18:30;;;;;;;7.88;2.33;;;22.70;99.90;;;;;;5101470;28;20075;-50
2022/06/26 12:20:56;;;;;;;6.95;2.80;;;22.40;99.90;;;;;;5101341;27;20062;-50
2022/06/26 12:23:36;;;;;;;9.43;2.78;;;22.40;99.90;;;;;;5104064;28;20550;-51
2022/06/26 12:26:07;;;;;;;6.85;2.60;;;22.30;99.90;;;;;;5098871;28;20524;-53
2022/06/26 12:28:33;;;;;;;7.95;2.78;;;22.40;99.90;;;;;;5100024;28;20040;-51
2022/06/26 12:31:01;;;;;;;4.75;2.00;;;22.40;99.90;;;;;;5102794;28;20051;-52
2022/06/26 12:33:27;;;;;;;8.15;2.65;;;22.50;99.90;;;;;;5108864;27;20043;-50
2022/06/26 12:35:52;;;;;;;6.00;2.45;;;22.40;99.90;;;;;;5109246;28;20032;-48
2022/06/26 12:38:26;;;;;;;6.25;2.40;;;22.40;99.90;;;;;;5093469;27;20054;-48
2022/06/26 12:40:53;;;;;;;5.70;2.30;;;22.40;99.90;;;;;;5091411;28;20031;-49
2022/06/26 12:43:18;;;;;;;5.93;2.22;;;22.40;99.90;;;;;;5107519;28;20031;-51
2022/06/26 12:45:44;;;;;;;4.60;2.50;;;22.40;99.90;;;;;;5105056;28;20112;-49
2022/06/26 12:48:10;;;;;;;5.65;2.50;;;22.20;99.90;;;;;;5108149;28;20110;-49
2022/06/26 12:50:36;;;;;;;6.07;2.58;;;22.10;99.90;;;;;;5090917;28;20035;-52
2022/06/26 12:53:02;;;;;;;6.85;3.67;;;22.00;99.90;;;;;;5107186;28;20051;-54
2022/06/26 12:55:28;;;;;;;6.72;3.95;;;21.90;99.90;;;;;;5109066;28;20470;-52